Weather at La Superba Heliport

Public forecast

Using degrees Celsius for public forecast. Weather courtesy of forecast.io.

Closest aviation weather report (METAR) to La Superba Heliport

Closest report is San Fernando Airport, 21.2 nm (39.4 km) E.

2024/05/30 21:00 (retrieved 30 minutes ago)

SADF 302100Z 08006KT 9999 BKN046 14/10 Q1023

Closest aviation forecast (TAF) to La Superba Heliport

Closest forecast is San Fernando Airport, 21.2 nm (39.4 km) E.

2024/05/30 18:03 (retrieved 3 hours ago)

TAF TAF SADF 301700Z 3018/3118 32005KT 9999 BKN045 TX17/3118Z TN10/3110Z BECMG 3020/3022 07005KT BECMG 3101/3103 CAVOK PROB30 TEMPO 3106/3112 5000 BR BKN010 BECMG 3113/3115 02010KT 9999 SCT040